Time;durP1;ratioP1;P1;durP2;ratioP2;P2;SDS_P1;SDS_P2;PMS_P1;PMS_P2;Temp;Humidity;BMP_temperature;BMP_pressure;BME280_temperature;BME280_humidity;BME280_pressure;Samples;Min_cycle;Max_cycle;Signal;HPM_P1;HPM_P2
2021/07/17 00:00:18;;;;;;;64.77;18.90;;;;;;;27.03;62.24;99496.84;1572862;89;21095;-72
2021/07/17 00:02:44;;;;;;;56.23;18.07;;;;;;;26.98;62.33;99492.42;1599523;88;21607;-72
2021/07/17 00:05:13;;;;;;;25.32;15.45;;;;;;;26.95;62.11;99487.63;1572239;89;21629;-72
2021/07/17 00:07:40;;;;;;;16.20;12.80;;;;;;;26.92;62.35;99487.54;1599831;89;20981;-73
2021/07/17 00:10:15;;;;;;;15.65;12.85;;;;;;;26.86;62.73;99490.59;1558948;90;21610;-72
2021/07/17 00:12:44;;;;;;;15.60;11.15;;;;;;;26.81;62.82;99494.98;1590855;88;21097;-72
2021/07/17 00:15:15;;;;;;;12.47;11.18;;;;;;;26.78;62.98;99497.10;1605426;88;21105;-73
2021/07/17 00:17:43;;;;;;;12.33;11.10;;;;;;;26.78;63.04;99492.96;1597962;88;21076;-72
2021/07/17 00:20:10;;;;;;;13.55;10.50;;;;;;;26.80;63.08;99488.47;1609176;87;20984;-70
2021/07/17 00:22:37;;;;;;;12.00;10.80;;;;;;;26.83;63.00;99491.30;1598045;89;21100;-71
2021/07/17 00:25:05;;;;;;;18.85;12.20;;;;;;;26.85;62.81;99493.13;1574543;89;21060;-71
2021/07/17 00:27:31;;;;;;;12.23;11.03;;;;;;;26.87;62.78;99487.25;1572546;90;21087;-71
2021/07/17 00:29:58;;;;;;;27.95;11.88;;;;;;;26.86;62.72;99487.03;1574421;90;21037;-71
2021/07/17 00:32:24;;;;;;;16.23;12.73;;;;;;;26.85;62.73;99484.05;1574700;91;21084;-71
2021/07/17 00:34:50;;;;;;;18.55;11.22;;;;;;;26.83;62.79;99494.05;1574557;91;21036;-84
2021/07/17 00:37:17;;;;;;;17.67;11.08;;;;;;;26.78;62.95;99479.16;1555661;89;21996;-74
2021/07/17 00:39:45;;;;;;;13.62;12.23;;;;;;;26.77;63.04;99482.28;1599678;89;21049;-79
2021/07/17 00:42:11;;;;;;;15.63;12.07;;;;;;;26.73;63.12;99477.27;1601534;88;21537;-82
2021/07/17 00:44:38;;;;;;;13.50;12.10;;;;;;;26.69;63.25;99479.16;1600552;88;21146;-81
2021/07/17 00:47:05;;;;;;;15.15;11.15;;;;;;;26.54;63.99;99478.63;1574431;89;21060;-83
2021/07/17 00:49:32;;;;;;;18.20;11.60;;;;;;;26.34;64.66;99479.98;1606242;88;21129;-75
2021/07/17 00:51:58;;;;;;;16.60;12.80;;;;;;;26.18;65.31;99480.58;1613701;88;20937;-77
2021/07/17 00:54:26;;;;;;;21.65;12.37;;;;;;;26.09;65.82;99479.17;1628683;85;21286;-79
2021/07/17 00:56:53;;;;;;;17.27;12.58;;;;;;;26.09;65.72;99481.33;1624207;86;20894;-78
2021/07/17 00:59:24;;;;;;;13.35;12.15;;;;;;;26.08;65.76;99488.59;1573695;89;21130;-82
2021/07/17 01:01:51;;;;;;;19.62;11.63;;;;;;;26.11;65.66;99483.73;1599695;89;21200;-81
2021/07/17 01:04:19;;;;;;;11.45;10.35;;;;;;;26.09;65.58;99485.46;1548836;91;21008;-78
2021/07/17 01:06:45;;;;;;;12.20;11.00;;;;;;;26.13;65.45;99480.05;1595884;89;21093;-80
2021/07/17 01:09:13;;;;;;;16.55;11.83;;;;;;;26.13;65.59;99475.92;1572034;89;21104;-80
2021/07/17 01:11:39;;;;;;;18.65;12.55;;;;;;;26.09;65.77;99468.16;1597438;89;21589;-79
2021/07/17 01:14:05;;;;;;;18.25;11.60;;;;;;;26.07;65.82;99474.59;1570878;89;21148;-82
2021/07/17 01:16:32;;;;;;;13.65;10.60;;;;;;;26.07;65.83;99475.39;1571471;89;20988;-80
2021/07/17 01:18:58;;;;;;;15.38;11.40;;;;;;;26.10;65.75;99476.62;1599796;89;22319;-79
2021/07/17 01:21:25;;;;;;;13.08;11.78;;;;;;;26.11;65.69;99479.02;1573303;89;21076;-79
2021/07/17 01:23:52;;;;;;;13.93;10.32;;;;;;;26.12;65.55;99477.07;1573379;89;21032;-80
2021/07/17 01:26:18;;;;;;;13.22;11.65;;;;;;;26.12;65.39;99477.88;1599092;89;21077;-78
2021/07/17 01:28:45;;;;;;;24.57;12.25;;;;;;;26.10;65.50;99476.62;1572781;89;21569;-78
2021/07/17 01:31:11;;;;;;;14.55;12.95;;;;;;;25.99;66.00;99477.16;1599612;88;21124;-81
2021/07/17 01:33:39;;;;;;;14.50;11.05;;;;;;;25.98;66.36;99472.83;1573130;89;21084;-79
2021/07/17 01:36:05;;;;;;;18.05;11.38;;;;;;;26.01;66.07;99471.30;1599073;89;21124;-78
2021/07/17 01:38:32;;;;;;;13.38;12.00;;;;;;;26.04;65.41;99473.36;1599721;89;21140;-80
2021/07/17 01:40:58;;;;;;;15.15;12.98;;;;;;;26.05;65.49;99472.18;1599515;89;20970;-78
2021/07/17 01:43:25;;;;;;;13.62;11.70;;;;;;;25.99;65.50;99473.02;1571903;89;21059;-78
2021/07/17 01:45:53;;;;;;;21.42;14.60;;;;;;;25.95;65.52;99474.91;1563319;89;21087;-77
2021/07/17 01:48:19;;;;;;;16.10;14.13;;;;;;;25.93;65.87;99476.43;1534253;89;21112;-79
2021/07/17 01:50:46;;;;;;;13.88;12.35;;;;;;;25.91;66.13;99474.59;1599811;89;21096;-79
2021/07/17 01:53:14;;;;;;;13.43;12.10;;;;;;;25.94;66.15;99476.09;1599574;88;21028;-79
2021/07/17 01:55:40;;;;;;;15.75;12.33;;;;;;;25.99;66.21;99473.02;1599834;89;20989;-80
2021/07/17 01:58:07;;;;;;;14.07;12.65;;;;;;;26.04;66.03;99470.61;1600184;88;21064;-79
2021/07/17 02:00:34;;;;;;;13.83;12.43;;;;;;;26.04;65.89;99470.61;1617731;88;21518;-79
2021/07/17 02:03:00;;;;;;;15.60;12.45;;;;;;;26.02;65.97;99472.33;1621976;88;21114;-77
2021/07/17 02:05:27;;;;;;;14.40;11.60;;;;;;;25.99;65.93;99471.64;1599669;88;21069;-78
2021/07/17 02:07:53;;;;;;;27.17;13.78;;;;;;;26.00;66.07;99473.25;1582460;89;21152;-79
2021/07/17 02:10:23;;;;;;;14.65;13.20;;;;;;;25.96;66.19;99465.48;1577914;89;21040;-79
2021/07/17 02:13:04;;;;;;;17.90;12.40;;;;;;;25.92;66.31;99464.60;1600331;89;21097;-76
2021/07/17 02:15:33;;;;;;;14.05;11.68;;;;;;;25.87;66.67;99461.31;1599911;89;21009;-77
2021/07/17 02:17:59;;;;;;;13.53;12.28;;;;;;;25.87;66.96;99463.50;1601833;88;21144;-79
2021/07/17 02:20:26;;;;;;;13.68;11.68;;;;;;;25.93;66.85;99473.10;1600414;89;21086;-80
2021/07/17 02:22:52;;;;;;;12.10;10.90;;;;;;;25.95;66.66;99469.97;1599350;89;21071;-78
2021/07/17 02:25:19;;;;;;;15.88;11.75;;;;;;;25.95;66.58;99478.23;1573839;89;21057;-79
2021/07/17 02:27:45;;;;;;;14.63;11.78;;;;;;;25.93;66.64;99470.34;1578320;89;21969;-80
2021/07/17 02:30:12;;;;;;;15.20;11.18;;;;;;;25.91;66.77;99471.27;1575196;91;21112;-81
2021/07/17 02:32:38;;;;;;;12.30;11.10;;;;;;;25.93;66.92;99474.48;1570399;88;21112;-79
2021/07/17 02:35:06;;;;;;;15.00;10.80;;;;;;;25.97;66.90;99479.49;1605662;87;21016;-79
2021/07/17 02:37:32;;;;;;;16.93;10.65;;;;;;;26.00;66.72;99480.14;1624227;88;21645;-79
2021/07/17 02:39:58;;;;;;;14.85;10.75;;;;;;;26.05;66.37;99478.50;1598757;88;21554;-78
2021/07/17 02:42:26;;;;;;;12.55;11.30;;;;;;;26.09;66.27;99484.08;1601193;87;21032;-80
2021/07/17 02:44:54;;;;;;;14.73;10.80;;;;;;;26.11;66.19;99486.49;1558617;90;33544;-80
2021/07/17 02:47:20;;;;;;;12.58;10.13;;;;;;;26.13;66.23;99482.23;1575327;90;21068;-79
2021/07/17 02:49:46;;;;;;;13.40;10.45;;;;;;;26.16;66.12;99483.46;1575476;91;21156;-79
2021/07/17 02:52:13;;;;;;;13.13;10.88;;;;;;;26.16;66.09;99478.75;1580437;88;21114;-79
2021/07/17 02:54:40;;;;;;;14.35;11.75;;;;;;;26.17;66.15;99482.31;1581291;89;21059;-79
2021/07/17 02:57:07;;;;;;;12.88;11.57;;;;;;;26.05;66.65;99481.25;1604297;89;20975;-80
2021/07/17 02:59:33;;;;;;;15.32;12.43;;;;;;;25.92;67.28;99478.38;1606394;88;20971;-79
2021/07/17 03:02:00;;;;;;;16.32;12.60;;;;;;;25.72;68.16;99481.41;1588087;89;21030;-79
2021/07/17 03:04:26;;;;;;;12.33;10.90;;;;;;;25.56;69.00;99481.42;1575040;90;21135;-79
2021/07/17 03:06:56;;;;;;;12.60;11.40;;;;;;;25.60;68.50;99483.11;1581692;90;21597;-78
2021/07/17 03:09:22;;;;;;;12.93;11.60;;;;;;;25.61;68.67;99483.31;1596616;88;21095;-78
2021/07/17 03:11:48;;;;;;;13.95;12.65;;;;;;;25.63;68.75;99483.54;1584778;89;21562;-77
2021/07/17 03:14:15;;;;;;;13.22;11.80;;;;;;;25.66;68.76;99484.23;1606983;89;20956;-78
2021/07/17 03:16:42;;;;;;;11.93;10.75;;;;;;;25.66;68.71;99476.73;1629176;88;20980;-75
2021/07/17 03:19:09;;;;;;;13.10;11.60;;;;;;;25.69;68.72;99482.93;1632871;87;20967;-77
2021/07/17 03:21:35;;;;;;;16.48;12.18;;;;;;;25.72;68.79;99479.45;1611853;88;21583;-77
2021/07/17 03:24:02;;;;;;;11.70;10.50;;;;;;;25.72;68.88;99478.66;1588406;89;22074;-76
2021/07/17 03:26:28;;;;;;;13.93;11.88;;;;;;;25.73;68.88;99483.81;1588028;89;21035;-77
2021/07/17 03:28:54;;;;;;;15.28;11.63;;;;;;;25.75;68.85;99478.77;1606934;88;21655;-77
2021/07/17 03:31:31;;;;;;;11.93;10.68;;;;;;;25.81;68.76;99477.89;1627708;88;21010;-80
2021/07/17 03:33:59;;;;;;;14.78;11.53;;;;;;;25.86;68.61;99476.25;1625569;87;21110;-78
2021/07/17 03:36:25;;;;;;;17.48;11.10;;;;;;;25.90;68.47;99471.64;1581422;90;21102;-77
2021/07/17 03:38:52;;;;;;;15.03;11.88;;;;;;;25.93;68.48;99479.19;1628920;88;21023;-77
2021/07/17 03:41:18;;;;;;;15.25;12.18;;;;;;;25.94;68.47;99483.55;1612101;87;21185;-77
2021/07/17 03:43:45;;;;;;;22.32;14.63;;;;;;;25.88;68.79;99471.19;1586945;89;21610;-76
2021/07/17 03:46:12;;;;;;;18.52;12.75;;;;;;;25.75;69.34;99478.77;1619190;88;20999;-77
2021/07/17 03:48:38;;;;;;;16.00;12.60;;;;;;;25.67;69.87;99473.41;1606340;88;21579;-78
2021/07/17 03:51:06;;;;;;;15.05;12.63;;;;;;;25.66;69.72;99473.98;1606379;89;21127;-78
2021/07/17 03:53:33;;;;;;;14.43;11.03;;;;;;;25.72;69.47;99473.14;1579771;89;21593;-79
2021/07/17 03:55:59;;;;;;;12.65;11.05;;;;;;;25.74;69.79;99473.59;1596925;89;21649;-78
2021/07/17 03:58:26;;;;;;;13.28;11.38;;;;;;;25.81;69.84;99472.38;1597049;88;21544;-80
2021/07/17 04:00:54;;;;;;;13.05;11.75;;;;;;;25.87;69.78;99479.23;1619228;88;20981;-78
2021/07/17 04:03:22;;;;;;;13.83;12.40;;;;;;;25.90;69.84;99472.42;1593853;88;21580;-79
2021/07/17 04:05:48;;;;;;;15.25;12.05;;;;;;;25.94;69.89;99473.91;1597197;89;21166;-80
2021/07/17 04:08:14;;;;;;;12.65;11.45;;;;;;;25.94;69.77;99472.52;1577601;89;21418;-79
2021/07/17 04:10:41;;;;;;;13.65;12.35;;;;;;;25.92;70.09;99480.34;1596967;89;21103;-78
2021/07/17 04:13:07;;;;;;;13.28;12.03;;;;;;;25.84;70.72;99478.00;1587505;88;21076;-79
2021/07/17 04:15:34;;;;;;;13.13;11.15;;;;;;;25.82;70.78;99482.25;1564944;91;21072;-80
2021/07/17 04:18:00;;;;;;;13.13;11.30;;;;;;;25.86;70.63;99487.27;1572246;89;21079;-79
2021/07/17 04:20:26;;;;;;;14.45;10.88;;;;;;;25.94;70.12;99479.41;1572073;91;20989;-79
2021/07/17 04:22:53;;;;;;;13.60;12.03;;;;;;;25.96;70.18;99484.78;1576211;88;21636;-78
2021/07/17 04:25:19;;;;;;;13.18;11.28;;;;;;;26.02;70.24;99490.25;1595246;89;21044;-78
2021/07/17 04:27:45;;;;;;;11.35;10.25;;;;;;;26.09;70.07;99488.83;1597319;88;21625;-79
2021/07/17 04:30:12;;;;;;;14.63;11.88;;;;;;;26.20;69.82;99489.85;1577312;89;21585;-79
2021/07/17 04:32:38;;;;;;;16.52;12.23;;;;;;;26.27;69.60;99485.34;1577403;89;21608;-78
2021/07/17 04:35:06;;;;;;;15.08;13.45;;;;;;;26.36;69.20;99490.09;1596932;89;21067;-78
2021/07/17 04:37:32;;;;;;;16.50;12.40;;;;;;;26.39;68.89;99483.03;1597427;89;21644;-80
2021/07/17 04:40:00;;;;;;;14.33;12.93;;;;;;;26.39;68.41;99489.93;1575592;88;21617;-80
2021/07/17 04:42:26;;;;;;;14.20;12.70;;;;;;;26.40;68.74;99493.72;1597496;89;21123;-80
2021/07/17 04:44:53;;;;;;;12.50;11.30;;;;;;;26.52;68.04;99483.73;1610831;88;21093;-80
2021/07/17 04:47:22;;;;;;;24.10;13.53;;;;;;;26.57;67.96;99485.59;1597041;89;21092;-80
2021/07/17 04:49:48;;;;;;;12.68;10.98;;;;;;;26.64;67.66;99483.58;1597080;89;21049;-82
2021/07/17 04:52:15;;;;;;;12.13;10.95;;;;;;;26.72;67.39;99492.22;1597088;88;21060;-78
2021/07/17 04:54:42;;;;;;;16.87;11.97;;;;;;;26.82;66.49;99499.35;1577947;89;21040;-78
2021/07/17 04:57:08;;;;;;;12.15;10.95;;;;;;;26.91;65.71;99495.63;1597155;88;21115;-78
2021/07/17 04:59:35;;;;;;;15.45;12.23;;;;;;;26.99;65.87;99505.64;1590816;89;21376;-78
2021/07/17 05:02:01;;;;;;;14.13;12.15;;;;;;;27.00;65.07;99487.92;1567158;90;21058;-79
2021/07/17 05:04:27;;;;;;;15.48;11.97;;;;;;;27.00;65.52;99500.34;1572104;90;21593;-79
2021/07/17 05:06:54;;;;;;;15.13;13.55;;;;;;;27.02;65.74;99500.18;1595568;88;21139;-78
2021/07/17 05:09:20;;;;;;;14.78;13.00;;;;;;;27.07;65.69;99499.89;1578454;89;21596;-78
2021/07/17 05:11:47;;;;;;;15.15;13.35;;;;;;;27.10;66.01;99496.39;1589299;88;21064;-79
2021/07/17 05:14:13;;;;;;;17.92;12.75;;;;;;;27.14;66.24;99497.28;1555517;89;21000;-78
2021/07/17 05:16:40;;;;;;;14.45;11.08;;;;;;;27.23;65.79;99493.70;1553237;91;21125;-79
2021/07/17 05:19:06;;;;;;;13.98;12.23;;;;;;;27.34;65.03;99498.03;1572658;89;21140;-79
2021/07/17 05:21:33;;;;;;;15.05;13.28;;;;;;;27.45;64.56;99497.66;1578234;89;21576;-81
2021/07/17 05:23:59;;;;;;;16.10;12.40;;;;;;;27.46;64.00;99497.08;1572344;91;21088;-79
2021/07/17 05:26:25;;;;;;;13.72;11.45;;;;;;;27.44;63.00;99491.91;1570757;89;21076;-80
2021/07/17 05:28:51;;;;;;;13.28;12.07;;;;;;;27.43;63.26;99497.81;1594613;89;21108;-78
2021/07/17 05:31:19;;;;;;;14.25;12.75;;;;;;;27.47;62.88;99499.48;1595595;89;21117;-78
2021/07/17 05:33:45;;;;;;;19.20;12.20;;;;;;;27.47;63.35;99500.05;1597041;89;21560;-78
2021/07/17 05:36:11;;;;;;;12.63;11.25;;;;;;;27.48;63.20;99492.77;1597262;88;21557;-77
2021/07/17 05:38:37;;;;;;;11.90;10.72;;;;;;;27.56;62.89;99498.68;1597041;89;21033;-77
2021/07/17 05:41:04;;;;;;;11.95;10.72;;;;;;;27.64;62.08;99499.02;1597416;88;21069;-76
2021/07/17 05:43:30;;;;;;;14.75;12.07;;;;;;;27.69;61.99;99500.09;1596913;89;21210;-79
2021/07/17 05:45:57;;;;;;;19.25;13.80;;;;;;;27.77;61.59;99498.23;1588822;88;21013;-80
2021/07/17 05:48:23;;;;;;;12.65;11.35;;;;;;;27.85;61.63;99500.55;1604215;88;21114;-80
2021/07/17 05:50:49;;;;;;;15.13;10.80;;;;;;;27.91;60.34;99499.88;1590707;88;21101;-77
2021/07/17 05:53:16;;;;;;;12.35;11.10;;;;;;;27.96;60.26;99500.16;1595527;88;21058;-78
2021/07/17 05:55:43;;;;;;;18.50;11.38;;;;;;;27.97;59.88;99505.87;1606351;89;21120;-79
2021/07/17 05:58:09;;;;;;;14.33;11.70;;;;;;;28.03;60.03;99507.96;1588998;88;20995;-81
2021/07/17 06:00:35;;;;;;;11.10;10.00;;;;;;;28.14;59.81;99513.12;1585416;88;21083;-80
2021/07/17 06:03:02;;;;;;;14.03;12.53;;;;;;;28.25;59.44;99516.02;1609048;89;21091;-78
2021/07/17 06:05:28;;;;;;;13.05;10.30;;;;;;;28.30;58.72;99515.70;1609776;88;20980;-79
2021/07/17 06:07:56;;;;;;;10.82;9.83;;;;;;;28.37;57.70;99510.30;1610189;88;21082;-78
2021/07/17 06:10:22;;;;;;;13.78;9.83;;;;;;;28.42;56.26;99510.56;1608049;88;21091;-78
2021/07/17 06:12:49;;;;;;;15.48;9.35;;;;;;;28.48;56.36;99512.64;1588446;89;21082;-79
2021/07/17 06:15:20;;;;;;;11.25;10.05;;;;;;;28.49;56.62;99509.30;1605217;88;21075;-79
2021/07/17 06:17:50;;;;;;;19.02;10.90;;;;;;;28.51;56.59;99511.88;1631770;88;21133;-80
2021/07/17 06:20:15;;;;;;;13.65;11.12;;;;;;;28.59;56.49;99511.38;1632469;88;21305;-77
2021/07/17 06:22:41;;;;;;;11.95;10.53;;;;;;;28.67;55.98;99514.48;1632700;87;20975;-78
2021/07/17 06:25:09;;;;;;;14.15;11.33;;;;;;;28.68;55.28;99505.59;1614015;87;20995;-79
2021/07/17 06:27:35;;;;;;;13.08;9.63;;;;;;;28.72;55.02;99512.00;1630512;88;21014;-80
2021/07/17 06:30:01;;;;;;;13.40;12.10;;;;;;;28.80;54.45;99511.71;1596005;88;21127;-75
2021/07/17 06:32:28;;;;;;;14.50;12.35;;;;;;;28.89;54.15;99507.27;1599787;88;21274;-75
2021/07/17 06:34:54;;;;;;;13.08;9.98;;;;;;;28.90;54.49;99508.86;1612989;87;20987;-76
2021/07/17 06:37:20;;;;;;;11.50;10.30;;;;;;;28.94;53.42;99508.31;1632313;87;21090;-76
2021/07/17 06:39:47;;;;;;;14.75;9.88;;;;;;;28.99;53.35;99508.78;1624164;87;21350;-75
2021/07/17 06:42:13;;;;;;;11.90;10.03;;;;;;;29.12;53.39;99516.25;1588147;89;21047;-75
2021/07/17 06:44:39;;;;;;;13.18;9.68;;;;;;;29.22;53.13;99506.46;1604967;89;22557;-75
2021/07/17 06:47:06;;;;;;;11.53;9.60;;;;;;;29.29;53.12;99506.55;1606281;88;21078;-75
2021/07/17 06:49:33;;;;;;;17.77;12.68;;;;;;;29.34;52.98;99508.43;1606469;88;21060;-76
2021/07/17 06:51:59;;;;;;;15.78;12.60;;;;;;;29.30;53.50;99504.00;1588406;89;21071;-75
2021/07/17 06:54:26;;;;;;;11.50;10.30;;;;;;;29.34;53.29;99502.89;1593659;88;21036;-75
2021/07/17 06:56:53;;;;;;;11.22;10.13;;;;;;;29.37;53.12;99510.43;1590736;90;21158;-76
2021/07/17 06:59:20;;;;;;;17.65;12.30;;;;;;;29.40;52.96;99508.27;1590698;89;22277;-77
2021/07/17 07:01:48;;;;;;;9.50;8.50;;;;;;;29.44;52.90;99507.75;1590794;88;21114;-76
2021/07/17 07:04:14;;;;;;;13.85;10.90;;;;;;;29.50;52.01;99506.79;1566041;89;21082;-77
2021/07/17 07:06:40;;;;;;;12.18;10.53;;;;;;;29.55;51.67;99507.83;1567455;88;21066;-78
2021/07/17 07:09:06;;;;;;;13.50;12.15;;;;;;;29.58;52.22;99503.52;1602706;88;21105;-76
2021/07/17 07:11:34;;;;;;;14.15;11.30;;;;;;;29.60;52.64;99491.44;1571266;90;21060;-75
2021/07/17 07:14:00;;;;;;;15.32;11.78;;;;;;;29.63;52.60;99495.66;1590746;89;21522;-77
2021/07/17 07:16:28;;;;;;;16.52;11.33;;;;;;;29.68;52.09;99495.30;1572564;90;21045;-76
2021/07/17 07:18:54;;;;;;;12.33;10.08;;;;;;;29.73;51.75;99495.54;1571484;90;21065;-76
2021/07/17 07:21:21;;;;;;;14.45;10.55;;;;;;;29.77;51.53;99489.44;1570466;90;21113;-75
2021/07/17 07:23:48;;;;;;;11.95;10.82;;;;;;;29.87;51.40;99492.30;1568873;90;21121;-76
2021/07/17 07:26:14;;;;;;;10.98;9.98;;;;;;;29.95;51.19;99487.62;1567433;90;21580;-75
2021/07/17 07:28:41;;;;;;;11.65;10.08;;;;;;;30.03;51.62;99492.04;1566266;91;21140;-76
2021/07/17 07:31:09;;;;;;;12.40;10.23;;;;;;;30.09;49.59;99502.19;1566257;91;21088;-80
2021/07/17 07:33:35;;;;;;;13.05;11.90;;;;;;;30.05;50.43;99500.78;1566314;91;21139;-76
2021/07/17 07:36:02;;;;;;;11.90;10.72;;;;;;;30.02;50.36;99497.99;1566299;91;21124;-79
2021/07/17 07:38:28;;;;;;;10.90;9.80;;;;;;;30.00;50.46;99496.17;1572188;90;21573;-76
2021/07/17 07:40:54;;;;;;;13.25;9.53;;;;;;;30.05;50.40;99504.95;1591292;88;21110;-74
2021/07/17 07:43:21;;;;;;;12.20;9.98;;;;;;;30.08;49.81;99494.45;1590942;90;21526;-74
2021/07/17 07:45:49;;;;;;;11.53;10.58;;;;;;;30.16;50.21;99504.44;1569273;90;21381;-76
2021/07/17 07:48:15;;;;;;;11.75;10.55;;;;;;;30.24;50.33;99502.50;1590875;90;21058;-76
2021/07/17 07:50:43;;;;;;;16.35;12.13;;;;;;;30.39;49.95;99504.78;1590729;90;21033;-75
2021/07/17 07:53:09;;;;;;;10.72;9.63;;;;;;;30.41;48.81;99495.48;1603076;88;21105;-75
2021/07/17 07:55:36;;;;;;;11.08;9.95;;;;;;;30.51;47.29;99496.14;1572008;89;21115;-76
2021/07/17 07:58:02;;;;;;;10.95;9.35;;;;;;;30.59;47.46;99498.59;1575592;88;21158;-75
2021/07/17 08:00:28;;;;;;;11.25;10.00;;;;;;;30.66;47.97;99495.84;1572398;89;21105;-75
2021/07/17 08:02:54;;;;;;;12.40;9.48;;;;;;;30.73;47.49;99489.54;1602129;88;20930;-75
2021/07/17 08:05:21;;;;;;;9.88;8.90;;;;;;;30.81;47.21;99493.13;1575086;88;21013;-75
2021/07/17 08:07:49;;;;;;;13.58;10.03;;;;;;;30.83;45.54;99497.13;1593609;89;21049;-74
2021/07/17 08:10:15;;;;;;;13.00;8.98;;;;;;;30.79;45.82;99494.12;1597361;89;21323;-74
2021/07/17 08:12:41;;;;;;;9.15;8.25;;;;;;;30.81;45.18;99491.15;1583205;89;21588;-79
2021/07/17 08:15:09;;;;;;;8.28;6.95;;;;;;;30.85;45.48;99493.94;1581383;88;21008;-77
2021/07/17 08:17:36;;;;;;;10.75;9.78;;;;;;;30.86;45.54;99498.31;1571146;89;21151;-77
2021/07/17 08:20:09;;;;;;;10.95;9.85;;;;;;;30.91;45.87;99491.80;1572781;89;21057;-78
2021/07/17 08:22:37;;;;;;;11.28;10.23;;;;;;;30.94;46.05;99483.25;1595044;88;21670;-76
2021/07/17 08:25:05;;;;;;;9.85;8.85;;;;;;;30.98;46.03;99479.92;1595125;89;21068;-75
2021/07/17 08:27:31;;;;;;;10.60;9.38;;;;;;;31.02;45.38;99479.36;1615695;88;21052;-76
2021/07/17 08:29:58;;;;;;;13.20;11.03;;;;;;;31.06;45.17;99476.00;1600870;88;21157;-76
2021/07/17 08:32:24;;;;;;;9.83;8.93;;;;;;;31.13;45.05;99471.84;1575524;89;21650;-76
2021/07/17 08:34:52;;;;;;;10.40;9.40;;;;;;;31.24;44.96;99484.38;1588360;89;21064;-76
2021/07/17 08:37:19;;;;;;;10.82;9.58;;;;;;;31.34;44.99;99478.84;1587740;89;21100;-79
2021/07/17 08:39:46;;;;;;;12.45;9.35;;;;;;;31.45;44.98;99479.67;1574487;91;21064;-78
2021/07/17 08:42:15;;;;;;;9.58;8.75;;;;;;;31.55;44.69;99478.89;1590753;88;21087;-79
2021/07/17 08:44:41;;;;;;;10.48;8.83;;;;;;;31.63;43.76;99469.98;1581336;89;21164;-78
2021/07/17 08:47:07;;;;;;;14.40;8.80;;;;;;;31.53;44.01;99470.13;1572336;89;21819;-77
2021/07/17 08:49:34;;;;;;;12.53;10.63;;;;;;;31.42;44.38;99469.32;1586107;88;20985;-76
2021/07/17 08:52:02;;;;;;;14.07;10.60;;;;;;;31.39;44.91;99468.73;1566316;91;21020;-80
2021/07/17 08:54:29;;;;;;;11.57;10.68;;;;;;;31.39;44.88;99467.93;1573712;88;21648;-84
2021/07/17 08:56:56;;;;;;;9.73;8.75;;;;;;;31.45;44.53;99469.94;1638676;86;21059;-84
2021/07/17 08:59:22;;;;;;;13.22;9.73;;;;;;;31.53;44.16;99475.70;1647604;87;22132;-83
2021/07/17 09:01:50;;;;;;;11.35;10.32;;;;;;;31.61;43.75;99476.52;1628400;86;20968;-82
2021/07/17 09:04:16;;;;;;;10.13;8.98;;;;;;;31.52;43.71;99468.54;1647637;86;21040;-83
2021/07/17 09:06:44;;;;;;;14.68;11.22;;;;;;;31.47;44.18;99473.10;1647296;86;20960;-84
2021/07/17 09:09:15;;;;;;;18.17;9.93;;;;;;;31.46;44.48;99474.91;1628345;87;21324;-83
2021/07/17 09:11:42;;;;;;;9.45;8.45;;;;;;;31.48;44.74;99473.90;1621367;88;21495;-85
2021/07/17 09:14:09;;;;;;;11.22;10.00;;;;;;;31.49;44.03;99470.73;1610763;87;20977;-85
2021/07/17 09:16:38;;;;;;;11.48;10.25;;;;;;;31.49;44.10;99465.17;1674194;85;21052;-82
2021/07/17 09:19:05;;;;;;;11.55;10.38;;;;;;;31.53;43.67;99465.97;1634133;86;21040;-81
2021/07/17 09:21:37;;;;;;;14.00;9.18;;;;;;;31.62;43.96;99464.80;1603877;88;21056;-82
2021/07/17 09:24:09;;;;;;;10.53;9.63;;;;;;;31.77;44.11;99460.83;1624214;87;21278;-81
2021/07/17 09:26:38;;;;;;;12.25;11.15;;;;;;;31.91;43.56;99454.67;1638038;87;21549;-80
2021/07/17 09:29:12;;;;;;;10.03;9.03;;;;;;;31.97;43.37;99453.08;1621131;88;20976;-82
2021/07/17 09:31:53;;;;;;;12.05;10.95;;;;;;;32.09;42.91;99455.27;1620880;88;21122;-81
2021/07/17 09:34:23;;;;;;;11.65;10.50;;;;;;;32.13;42.63;99449.92;1624419;87;21100;-82
2021/07/17 09:37:06;;;;;;;10.75;9.70;;;;;;;32.23;42.81;99460.20;1624899;86;21052;-81
2021/07/17 09:39:38;;;;;;;11.10;9.78;;;;;;;32.36;42.13;99453.04;1627183;87;21076;-81
2021/07/17 09:42:08;;;;;;;11.35;10.20;;;;;;;32.43;42.25;99450.22;1630316;87;21009;-80
2021/07/17 09:44:35;;;;;;;18.50;11.60;;;;;;;32.53;42.08;99443.63;1653071;85;21072;-82
2021/07/17 09:47:03;;;;;;;12.10;9.78;;;;;;;32.63;41.55;99444.19;1674640;85;21017;-82
2021/07/17 09:49:31;;;;;;;11.12;10.10;;;;;;;32.61;41.24;99436.25;1654596;85;21503;-82
2021/07/17 09:52:17;;;;;;;13.15;11.83;;;;;;;32.59;41.59;99440.03;1655018;85;21025;-82
2021/07/17 09:55:13;;;;;;;19.62;9.53;;;;;;;32.65;41.42;99434.27;1652582;85;21087;-83
2021/07/17 09:57:39;;;;;;;13.43;11.40;;;;;;;32.72;40.69;99433.43;1688931;85;21015;-81
2021/07/17 10:00:10;;;;;;;11.57;10.58;;;;;;;32.80;40.77;99416.90;1679027;85;21551;-82
2021/07/17 10:02:36;;;;;;;12.10;10.88;;;;;;;32.84;40.94;99421.25;1634111;85;21085;-81
2021/07/17 10:05:05;;;;;;;14.85;10.85;;;;;;;32.94;40.69;99427.17;1649377;85;20975;-84
2021/07/17 10:07:31;;;;;;;11.53;10.43;;;;;;;32.93;40.67;99432.54;1630214;87;21552;-84
2021/07/17 10:10:00;;;;;;;12.00;9.45;;;;;;;32.95;40.50;99428.77;1634603;87;21552;-83
2021/07/17 10:12:39;;;;;;;11.40;10.40;;;;;;;33.02;39.85;99423.93;1608553;87;21091;-83
2021/07/17 10:15:11;;;;;;;11.93;10.70;;;;;;;33.09;40.08;99414.74;1608855;87;21344;-82
2021/07/17 10:17:41;;;;;;;13.08;11.75;;;;;;;33.17;40.07;99412.13;1636139;85;21619;-82
2021/07/17 10:20:12;;;;;;;12.65;11.55;;;;;;;33.26;39.55;99413.84;1689753;84;21601;-83
2021/07/17 10:22:39;;;;;;;11.48;10.43;;;;;;;33.33;39.49;99407.44;1634822;87;21071;-82
2021/07/17 10:25:09;;;;;;;14.63;11.60;;;;;;;33.42;39.19;99407.77;1620288;87;21086;-85
2021/07/17 10:27:35;;;;;;;11.05;9.75;;;;;;;33.44;38.29;99408.13;1634852;87;21934;-84
2021/07/17 10:30:05;;;;;;;11.08;9.93;;;;;;;33.44;38.44;99403.95;1651496;85;21162;-78
2021/07/17 10:32:31;;;;;;;11.73;10.63;;;;;;;33.39;38.41;99402.39;1650343;84;21010;-79
2021/07/17 10:34:57;;;;;;;10.53;9.48;;;;;;;33.38;38.72;99405.02;1680256;84;21525;-78
2021/07/17 10:37:32;;;;;;;12.23;11.03;;;;;;;33.39;38.74;99408.56;1687899;84;21060;-78
2021/07/17 10:40:15;;;;;;;11.97;10.78;;;;;;;33.30;39.08;99403.45;1689779;84;21758;-78
2021/07/17 10:42:46;;;;;;;;;;;;;;;33.18;39.72;99395.59;1631412;87;21123;-78
2021/07/17 10:45:35;;;;;;;10.43;9.43;;;;;;;33.17;39.73;99399.58;1650724;85;20138;-78
2021/07/17 10:48:03;;;;;;;11.43;10.30;;;;;;;33.22;39.62;99393.57;1634062;86;21048;-77
2021/07/17 10:50:35;;;;;;;11.85;10.88;;;;;;;33.27;39.61;99389.75;1618080;87;21074;-78
2021/07/17 10:53:02;;;;;;;16.82;10.95;;;;;;;33.29;39.57;99387.92;1659250;84;21075;-76
2021/07/17 10:55:32;;;;;;;15.55;11.90;;;;;;;33.26;39.99;99389.55;1660614;86;21502;-74
2021/07/17 10:58:12;;;;;;;13.08;11.43;;;;;;;33.20;40.00;99390.38;1618081;86;21108;-76
2021/07/17 11:00:52;;;;;;;12.53;11.28;;;;;;;33.08;39.90;99381.89;1656337;86;21123;-75
2021/07/17 11:03:29;;;;;;;12.20;10.90;;;;;;;33.03;40.04;99385.70;1630405;87;21064;-75
2021/07/17 11:05:56;;;;;;;10.05;9.15;;;;;;;32.97;40.55;99376.19;1612727;87;21755;-74
2021/07/17 11:08:37;;;;;;;13.95;12.73;;;;;;;32.94;40.60;99373.63;1639768;86;21071;-73
2021/07/17 11:11:34;;;;;;;12.43;11.18;;;;;;;32.92;40.44;99360.69;1635497;87;20955;-75
2021/07/17 11:14:17;;;;;;;15.13;10.68;;;;;;;33.03;40.45;99363.41;1635473;87;21533;-74
2021/07/17 11:16:49;;;;;;;8.98;8.18;;;;;;;33.05;40.92;99369.35;1635189;87;21047;-75
2021/07/17 11:19:22;;;;;;;14.55;9.33;;;;;;;32.81;41.78;99372.49;1634908;87;21743;-76
2021/07/17 11:21:48;;;;;;;9.60;8.67;;;;;;;32.67;41.09;99365.61;1632795;86;20968;-76